sensor_id;sensor_type;location;lat;lon;timestamp;pressure;altitude;pressure_sealevel;temperature;humidity
9129;BME280;4599;50.906;6.786;2023-02-21T00:00:55;14102.72;;;-142.83;87.19
9129;BME280;4599;50.906;6.786;2023-02-21T00:04:58;14080.22;;;-142.83;88.04
9129;BME280;4599;50.906;6.786;2023-02-21T00:09:00;14086.38;;;-142.83;87.75
9129;BME280;4599;50.906;6.786;2023-02-21T00:13:02;14098.63;;;-142.83;88.13
9129;BME280;4599;50.906;6.786;2023-02-21T00:17:03;14063.88;;;-142.83;87.90
9129;BME280;4599;50.906;6.786;2023-02-21T00:21:06;14047.53;;;-142.83;87.87
9129;BME280;4599;50.906;6.786;2023-02-21T00:25:08;14076.16;;;-142.83;87.47
9129;BME280;4599;50.906;6.786;2023-02-21T00:29:09;14078.19;;;-142.83;88.08
9129;BME280;4599;50.906;6.786;2023-02-21T00:33:13;14043.44;;;-142.83;87.16
9129;BME280;4599;50.906;6.786;2023-02-21T00:37:16;14117.03;;;-142.83;87.02
9129;BME280;4599;50.906;6.786;2023-02-21T00:41:17;14090.44;;;-142.83;86.91
9129;BME280;4599;50.906;6.786;2023-02-21T00:45:19;14067.97;;;-142.83;86.45
9129;BME280;4599;50.906;6.786;2023-02-21T00:49:20;14061.84;;;-142.83;86.41
9129;BME280;4599;50.906;6.786;2023-02-21T00:53:25;14067.97;;;-142.83;86.27
9129;BME280;4599;50.906;6.786;2023-02-21T00:57:32;14078.19;;;-142.83;86.49
9129;BME280;4599;50.906;6.786;2023-02-21T01:01:34;14100.66;;;-142.83;86.25
9129;BME280;4599;50.906;6.786;2023-02-21T01:05:35;14094.53;;;-142.83;86.67
9129;BME280;4599;50.906;6.786;2023-02-21T01:09:38;14055.72;;;-142.83;87.23
9129;BME280;4599;50.906;6.786;2023-02-21T01:13:40;14063.88;;;-142.83;87.43
9129;BME280;4599;50.906;6.786;2023-02-21T01:17:41;14023.00;;;-142.83;87.62
9129;BME280;4599;50.906;6.786;2023-02-21T01:21:46;14049.56;;;-142.83;87.57
9129;BME280;4599;50.906;6.786;2023-02-21T01:25:49;14041.41;;;-142.83;87.42
9129;BME280;4599;50.906;6.786;2023-02-21T01:29:50;14027.09;;;-142.83;87.53
9129;BME280;4599;50.906;6.786;2023-02-21T01:33:51;14088.41;;;-142.83;87.60
9129;BME280;4599;50.906;6.786;2023-02-21T01:37:53;14080.22;;;-142.83;86.95
9129;BME280;4599;50.906;6.786;2023-02-21T01:41:56;14088.41;;;-142.83;85.95
9129;BME280;4599;50.906;6.786;2023-02-21T01:45:57;14072.06;;;-142.83;86.92
9129;BME280;4599;50.906;6.786;2023-02-21T01:50:00;14063.88;;;-142.83;86.97
9129;BME280;4599;50.906;6.786;2023-02-21T01:54:03;14070.00;;;-142.83;87.01
9129;BME280;4599;50.906;6.786;2023-02-21T01:58:07;14076.16;;;-142.83;86.88
9129;BME280;4599;50.906;6.786;2023-02-21T02:02:13;14076.16;;;-142.83;87.24
9129;BME280;4599;50.906;6.786;2023-02-21T02:06:16;14047.53;;;-142.83;87.27
9129;BME280;4599;50.906;6.786;2023-02-21T02:10:18;14055.72;;;-142.83;86.93
9129;BME280;4599;50.906;6.786;2023-02-21T02:14:37;14080.22;;;-142.83;86.96
9129;BME280;4599;50.906;6.786;2023-02-21T02:18:53;14059.78;;;-142.83;86.79
9129;BME280;4599;50.906;6.786;2023-02-21T02:23:18;14063.88;;;-142.83;87.69
9129;BME280;4599;50.906;6.786;2023-02-21T02:27:56;14080.22;;;-142.83;87.52
9129;BME280;4599;50.906;6.786;2023-02-21T02:36:35;14049.56;;;-142.83;88.18
9129;BME280;4599;50.906;6.786;2023-02-21T02:40:44;14041.41;;;-142.83;88.15
9129;BME280;4599;50.906;6.786;2023-02-21T02:44:52;14061.84;;;-142.83;87.13
9129;BME280;4599;50.906;6.786;2023-02-21T02:48:59;14057.75;;;-142.83;87.61
9129;BME280;4599;50.906;6.786;2023-02-21T02:53:04;14070.00;;;-142.83;87.47
9129;BME280;4599;50.906;6.786;2023-02-21T02:57:08;14029.13;;;-142.83;87.09
9129;BME280;4599;50.906;6.786;2023-02-21T03:01:25;14059.78;;;-142.83;87.48
9129;BME280;4599;50.906;6.786;2023-02-21T03:05:48;14045.50;;;-142.83;87.56
9129;BME280;4599;50.906;6.786;2023-02-21T03:10:04;14065.94;;;-142.83;87.91
9129;BME280;4599;50.906;6.786;2023-02-21T03:14:12;14037.31;;;-142.83;88.36
9129;BME280;4599;50.906;6.786;2023-02-21T03:18:18;14035.28;;;-142.83;88.31
9129;BME280;4599;50.906;6.786;2023-02-21T03:22:25;14047.53;;;-142.83;89.15
9129;BME280;4599;50.906;6.786;2023-02-21T03:26:31;14045.50;;;-142.83;89.46
9129;BME280;4599;50.906;6.786;2023-02-21T03:30:34;14016.88;;;-142.83;89.50
9129;BME280;4599;50.906;6.786;2023-02-21T03:34:36;14047.53;;;-142.83;88.51
9129;BME280;4599;50.906;6.786;2023-02-21T03:38:37;14035.28;;;-142.83;88.48
9129;BME280;4599;50.906;6.786;2023-02-21T03:42:40;14059.78;;;-142.83;88.32
9129;BME280;4599;50.906;6.786;2023-02-21T03:46:41;14067.97;;;-142.83;87.99
9129;BME280;4599;50.906;6.786;2023-02-21T03:50:44;14016.88;;;-142.83;88.96
9129;BME280;4599;50.906;6.786;2023-02-21T03:54:46;14043.44;;;-142.83;88.11
9129;BME280;4599;50.906;6.786;2023-02-21T03:58:49;14035.28;;;-142.83;88.37
9129;BME280;4599;50.906;6.786;2023-02-21T04:02:50;14018.91;;;-142.83;87.78
9129;BME280;4599;50.906;6.786;2023-02-21T04:06:51;14047.53;;;-142.83;88.03
9129;BME280;4599;50.906;6.786;2023-02-21T04:10:53;14080.22;;;-142.83;87.14
9129;BME280;4599;50.906;6.786;2023-02-21T04:14:56;14057.75;;;-142.83;87.06
9129;BME280;4599;50.906;6.786;2023-02-21T04:18:57;14067.97;;;-142.83;86.68
9129;BME280;4599;50.906;6.786;2023-02-21T04:22:59;14072.06;;;-142.83;87.02
9129;BME280;4599;50.906;6.786;2023-02-21T04:27:04;14047.53;;;-142.83;87.14
9129;BME280;4599;50.906;6.786;2023-02-21T04:31:06;14039.34;;;-142.83;87.55
9129;BME280;4599;50.906;6.786;2023-02-21T04:35:08;14055.72;;;-142.83;87.34
9129;BME280;4599;50.906;6.786;2023-02-21T04:39:10;14053.66;;;-142.83;87.62
9129;BME280;4599;50.906;6.786;2023-02-21T04:43:11;14074.09;;;-142.83;86.88
9129;BME280;4599;50.906;6.786;2023-02-21T04:47:14;14082.28;;;-142.83;87.47
9129;BME280;4599;50.906;6.786;2023-02-21T04:51:17;14035.28;;;-142.83;87.11
9129;BME280;4599;50.906;6.786;2023-02-21T04:55:20;14057.75;;;-142.83;85.97
9129;BME280;4599;50.906;6.786;2023-02-21T04:59:21;14070.00;;;-142.83;86.46
9129;BME280;4599;50.906;6.786;2023-02-21T05:03:24;14061.84;;;-142.83;85.81
9129;BME280;4599;50.906;6.786;2023-02-21T05:07:26;14057.75;;;-142.83;86.01
9129;BME280;4599;50.906;6.786;2023-02-21T05:11:27;14076.16;;;-142.83;86.40
9129;BME280;4599;50.906;6.786;2023-02-21T05:15:32;14094.53;;;-142.83;85.66
9129;BME280;4599;50.906;6.786;2023-02-21T05:19:35;14074.09;;;-142.83;85.24
9129;BME280;4599;50.906;6.786;2023-02-21T05:23:39;14088.41;;;-142.83;85.46
9129;BME280;4599;50.906;6.786;2023-02-21T05:27:41;14047.53;;;-142.83;86.18
9129;BME280;4599;50.906;6.786;2023-02-21T05:31:43;14088.41;;;-142.83;86.06
9129;BME280;4599;50.906;6.786;2023-02-21T05:35:46;14067.97;;;-142.83;86.64
9129;BME280;4599;50.906;6.786;2023-02-21T05:39:48;14096.59;;;-142.83;86.39
9129;BME280;4599;50.906;6.786;2023-02-21T05:43:50;14096.59;;;-142.83;85.46
9129;BME280;4599;50.906;6.786;2023-02-21T05:47:51;14061.84;;;-142.83;86.37
9129;BME280;4599;50.906;6.786;2023-02-21T05:51:54;14055.72;;;-142.83;86.87
9129;BME280;4599;50.906;6.786;2023-02-21T05:55:56;14045.50;;;-142.83;87.83
9129;BME280;4599;50.906;6.786;2023-02-21T05:59:57;14086.38;;;-142.83;87.25
9129;BME280;4599;50.906;6.786;2023-02-21T06:03:59;14061.84;;;-142.83;86.51
9129;BME280;4599;50.906;6.786;2023-02-21T06:08:02;14065.94;;;-142.83;86.94
9129;BME280;4599;50.906;6.786;2023-02-21T06:12:04;14057.75;;;-142.83;87.42
9129;BME280;4599;50.906;6.786;2023-02-21T06:16:05;14065.94;;;-142.83;88.21
9129;BME280;4599;50.906;6.786;2023-02-21T06:20:10;14018.91;;;-142.83;88.52
9129;BME280;4599;50.906;6.786;2023-02-21T06:24:15;14047.53;;;-142.83;89.21
9129;BME280;4599;50.906;6.786;2023-02-21T06:28:16;14027.09;;;-142.83;89.55
9129;BME280;4599;50.906;6.786;2023-02-21T06:32:17;14014.84;;;-142.83;88.52
9129;BME280;4599;50.906;6.786;2023-02-21T06:36:21;14057.75;;;-142.83;88.71
9129;BME280;4599;50.906;6.786;2023-02-21T06:40:24;14006.66;;;-142.83;89.16
9129;BME280;4599;50.906;6.786;2023-02-21T06:44:26;14012.78;;;-142.83;89.60
9129;BME280;4599;50.906;6.786;2023-02-21T06:48:27;14055.72;;;-142.83;88.99
9129;BME280;4599;50.906;6.786;2023-02-21T06:52:29;14076.16;;;-142.83;88.78
9129;BME280;4599;50.906;6.786;2023-02-21T06:56:32;14031.19;;;-142.83;89.29
9129;BME280;4599;50.906;6.786;2023-02-21T07:00:34;14020.97;;;-142.83;88.71
9129;BME280;4599;50.906;6.786;2023-02-21T07:04:35;14035.28;;;-142.83;89.20
9129;BME280;4599;50.906;6.786;2023-02-21T07:08:37;14016.88;;;-142.83;89.17
9129;BME280;4599;50.906;6.786;2023-02-21T07:12:39;14043.44;;;-142.83;89.32
9129;BME280;4599;50.906;6.786;2023-02-21T07:16:41;14039.34;;;-142.83;89.14
9129;BME280;4599;50.906;6.786;2023-02-21T07:20:42;14008.69;;;-142.83;89.07
9129;BME280;4599;50.906;6.786;2023-02-21T07:24:44;14027.09;;;-142.83;89.13
9129;BME280;4599;50.906;6.786;2023-02-21T07:28:47;14031.19;;;-142.83;89.67
9129;BME280;4599;50.906;6.786;2023-02-21T07:32:49;13994.41;;;-142.83;89.28
9129;BME280;4599;50.906;6.786;2023-02-21T07:36:51;14047.53;;;-142.83;89.31
9129;BME280;4599;50.906;6.786;2023-02-21T07:40:54;14020.97;;;-142.83;89.72
9129;BME280;4599;50.906;6.786;2023-02-21T07:44:57;14020.97;;;-142.83;88.99
9129;BME280;4599;50.906;6.786;2023-02-21T07:48:59;14027.09;;;-142.83;89.29
9129;BME280;4599;50.906;6.786;2023-02-21T07:53:01;14014.84;;;-142.83;89.22
9129;BME280;4599;50.906;6.786;2023-02-21T07:57:02;14014.84;;;-142.83;89.90
9129;BME280;4599;50.906;6.786;2023-02-21T08:01:06;14029.13;;;-142.83;90.35
9129;BME280;4599;50.906;6.786;2023-02-21T08:05:08;14000.53;;;-142.83;89.98
9129;BME280;4599;50.906;6.786;2023-02-21T08:09:09;14055.72;;;-142.83;90.72
9129;BME280;4599;50.906;6.786;2023-02-21T08:13:11;14033.22;;;-142.83;90.22
9129;BME280;4599;50.906;6.786;2023-02-21T08:17:14;14016.88;;;-142.83;89.73
9129;BME280;4599;50.906;6.786;2023-02-21T08:21:15;14010.75;;;-142.83;90.33
9129;BME280;4599;50.906;6.786;2023-02-21T08:25:17;14004.63;;;-142.83;90.34
9129;BME280;4599;50.906;6.786;2023-02-21T08:29:19;14018.91;;;-142.83;89.97
9129;BME280;4599;50.906;6.786;2023-02-21T08:33:22;14031.19;;;-142.83;89.02
9129;BME280;4599;50.906;6.786;2023-02-21T08:37:23;14006.66;;;-142.83;89.32
9129;BME280;4599;50.906;6.786;2023-02-21T08:41:25;14065.94;;;-142.83;88.83
9129;BME280;4599;50.906;6.786;2023-02-21T08:45:34;14041.41;;;-142.83;88.70
9129;BME280;4599;50.906;6.786;2023-02-21T08:49:37;14039.34;;;-142.83;88.37
9129;BME280;4599;50.906;6.786;2023-02-21T08:53:39;14043.44;;;-142.83;88.55
9129;BME280;4599;50.906;6.786;2023-02-21T08:57:40;14045.50;;;-142.83;88.37
9129;BME280;4599;50.906;6.786;2023-02-21T09:01:41;14053.66;;;-142.83;87.90
9129;BME280;4599;50.906;6.786;2023-02-21T09:05:44;14072.06;;;-142.83;87.05
9129;BME280;4599;50.906;6.786;2023-02-21T09:09:46;14043.44;;;-142.83;85.68
9129;BME280;4599;50.906;6.786;2023-02-21T09:13:48;14076.16;;;-142.83;85.87
9129;BME280;4599;50.906;6.786;2023-02-21T09:17:50;14084.31;;;-142.83;85.42
9129;BME280;4599;50.906;6.786;2023-02-21T09:21:53;14076.16;;;-142.83;85.59
9129;BME280;4599;50.906;6.786;2023-02-21T09:25:55;14074.09;;;-142.83;85.05
9129;BME280;4599;50.906;6.786;2023-02-21T09:29:57;14090.44;;;-142.83;85.00
9129;BME280;4599;50.906;6.786;2023-02-21T09:33:58;14072.06;;;-142.83;84.22
9129;BME280;4599;50.906;6.786;2023-02-21T09:38:01;14112.94;;;-142.83;84.52
9129;BME280;4599;50.906;6.786;2023-02-21T09:42:03;14067.97;;;-142.83;85.55
9129;BME280;4599;50.906;6.786;2023-02-21T09:46:10;14084.31;;;-142.83;85.19
9129;BME280;4599;50.906;6.786;2023-02-21T09:50:14;14108.84;;;-142.83;84.68
9129;BME280;4599;50.906;6.786;2023-02-21T09:54:27;14110.88;;;-142.83;83.34
9129;BME280;4599;50.906;6.786;2023-02-21T09:58:30;14139.50;;;-142.83;82.88
9129;BME280;4599;50.906;6.786;2023-02-21T10:02:41;14084.31;;;-142.83;82.82
9129;BME280;4599;50.906;6.786;2023-02-21T10:06:48;14100.66;;;-142.83;83.98
9129;BME280;4599;50.906;6.786;2023-02-21T10:10:57;14117.03;;;-142.83;82.70
9129;BME280;4599;50.906;6.786;2023-02-21T10:15:16;14141.53;;;-142.83;82.17
9129;BME280;4599;50.906;6.786;2023-02-21T10:19:25;14145.63;;;-142.83;81.51
9129;BME280;4599;50.906;6.786;2023-02-21T10:23:35;14151.75;;;-142.83;81.91
9129;BME280;4599;50.906;6.786;2023-02-21T10:27:39;14129.28;;;-142.83;82.12
9129;BME280;4599;50.906;6.786;2023-02-21T10:31:42;14135.41;;;-142.83;81.28
9129;BME280;4599;50.906;6.786;2023-02-21T10:35:45;14106.81;;;-142.83;81.99
9129;BME280;4599;50.906;6.786;2023-02-21T10:39:50;14161.97;;;-142.83;81.27
9129;BME280;4599;50.906;6.786;2023-02-21T10:43:59;14141.53;;;-142.83;81.29
9129;BME280;4599;50.906;6.786;2023-02-21T10:48:03;14125.19;;;-142.83;81.75
9129;BME280;4599;50.906;6.786;2023-02-21T10:52:09;14174.25;;;-142.83;81.04
9129;BME280;4599;50.906;6.786;2023-02-21T10:56:21;14131.31;;;-142.83;81.43
9129;BME280;4599;50.906;6.786;2023-02-21T11:00:27;14121.09;;;-142.83;81.55
9129;BME280;4599;50.906;6.786;2023-02-21T11:04:32;14110.88;;;-142.83;81.73
9129;BME280;4599;50.906;6.786;2023-02-21T11:08:36;14137.47;;;-142.83;81.19
9129;BME280;4599;50.906;6.786;2023-02-21T11:12:38;14153.81;;;-142.83;80.50
9129;BME280;4599;50.906;6.786;2023-02-21T11:16:41;14133.38;;;-142.83;81.68
9129;BME280;4599;50.906;6.786;2023-02-21T11:20:43;14159.94;;;-142.83;80.55
9129;BME280;4599;50.906;6.786;2023-02-21T11:24:58;14151.75;;;-142.83;79.82
9129;BME280;4599;50.906;6.786;2023-02-21T11:29:08;14159.94;;;-142.83;79.27
9129;BME280;4599;50.906;6.786;2023-02-21T11:33:17;14166.06;;;-142.83;80.21
9129;BME280;4599;50.906;6.786;2023-02-21T11:37:21;14180.38;;;-142.83;78.73
9129;BME280;4599;50.906;6.786;2023-02-21T11:41:27;14172.19;;;-142.83;78.59
9129;BME280;4599;50.906;6.786;2023-02-21T11:45:29;14178.34;;;-142.83;78.92
9129;BME280;4599;50.906;6.786;2023-02-21T11:49:38;14174.25;;;-142.83;78.72
9129;BME280;4599;50.906;6.786;2023-02-21T11:53:42;14182.41;;;-142.83;79.01
9129;BME280;4599;50.906;6.786;2023-02-21T11:57:51;14176.28;;;-142.83;78.05
9129;BME280;4599;50.906;6.786;2023-02-21T12:02:04;14194.69;;;-142.83;77.70
9129;BME280;4599;50.906;6.786;2023-02-21T12:06:20;14243.72;;;-142.83;75.28
9129;BME280;4599;50.906;6.786;2023-02-21T12:10:39;14215.13;;;-142.83;76.08
9129;BME280;4599;50.906;6.786;2023-02-21T12:14:54;14260.09;;;-142.83;74.97
9129;BME280;4599;50.906;6.786;2023-02-21T12:19:11;14274.38;;;-142.83;72.78
9129;BME280;4599;50.906;6.786;2023-02-21T12:23:22;14315.25;;;-142.83;73.08
9129;BME280;4599;50.906;6.786;2023-02-21T12:27:33;14300.97;;;-142.83;72.87
9129;BME280;4599;50.906;6.786;2023-02-21T12:31:54;14460.38;;;-142.83;70.67
9129;BME280;4599;50.906;6.786;2023-02-21T12:36:15;14478.78;;;-142.83;68.65
9129;BME280;4599;50.906;6.786;2023-02-21T12:40:35;14505.34;;;-142.83;65.08
9129;BME280;4599;50.906;6.786;2023-02-21T12:44:53;14529.88;;;-142.83;65.99
9129;BME280;4599;50.906;6.786;2023-02-21T12:49:03;14550.31;;;-142.83;64.86
9129;BME280;4599;50.906;6.786;2023-02-21T12:53:10;14538.03;;;-142.83;65.53
9129;BME280;4599;50.906;6.786;2023-02-21T12:57:17;14525.78;;;-142.83;65.98
9129;BME280;4599;50.906;6.786;2023-02-21T13:01:24;14552.34;;;-142.83;65.33
9129;BME280;4599;50.906;6.786;2023-02-21T13:05:32;14589.16;;;-142.83;64.35
9129;BME280;4599;50.906;6.786;2023-02-21T13:09:39;14505.34;;;-142.83;65.56
9129;BME280;4599;50.906;6.786;2023-02-21T13:13:49;14489.00;;;-142.83;68.10
9129;BME280;4599;50.906;6.786;2023-02-21T13:17:57;14533.97;;;-142.83;64.88
9129;BME280;4599;50.906;6.786;2023-02-21T13:26:55;14538.03;;;-142.83;63.43
9129;BME280;4599;50.906;6.786;2023-02-21T13:31:03;14550.31;;;-142.83;64.12
9129;BME280;4599;50.906;6.786;2023-02-21T13:35:09;14513.53;;;-142.83;64.98
9129;BME280;4599;50.906;6.786;2023-02-21T13:39:12;14533.97;;;-142.83;64.46
9129;BME280;4599;50.906;6.786;2023-02-21T13:43:21;14542.13;;;-142.83;63.92
9129;BME280;4599;50.906;6.786;2023-02-21T13:47:25;14552.34;;;-142.83;64.70
9129;BME280;4599;50.906;6.786;2023-02-21T13:51:45;14472.63;;;-142.83;65.34
9129;BME280;4599;50.906;6.786;2023-02-21T13:56:15;14531.91;;;-142.83;64.66
9129;BME280;4599;50.906;6.786;2023-02-21T14:00:44;14538.03;;;-142.83;64.94
9129;BME280;4599;50.906;6.786;2023-02-21T14:05:01;14501.25;;;-142.83;64.66
9129;BME280;4599;50.906;6.786;2023-02-21T14:09:10;14454.25;;;-142.83;66.41
9129;BME280;4599;50.906;6.786;2023-02-21T14:13:20;14448.13;;;-142.83;67.57
9129;BME280;4599;50.906;6.786;2023-02-21T14:17:27;14407.25;;;-142.83;67.06
9129;BME280;4599;50.906;6.786;2023-02-21T14:21:34;14417.47;;;-142.83;67.96
9129;BME280;4599;50.906;6.786;2023-02-21T14:25:36;14386.81;;;-142.83;67.69
9129;BME280;4599;50.906;6.786;2023-02-21T14:29:39;14413.38;;;-142.83;68.92
9129;BME280;4599;50.906;6.786;2023-02-21T14:33:42;14403.16;;;-142.83;68.57
9129;BME280;4599;50.906;6.786;2023-02-21T14:37:51;14382.72;;;-142.83;68.81
9129;BME280;4599;50.906;6.786;2023-02-21T14:42:04;14309.13;;;-142.83;69.95
9129;BME280;4599;50.906;6.786;2023-02-21T14:46:29;14345.91;;;-142.83;69.94
9129;BME280;4599;50.906;6.786;2023-02-21T14:50:42;14325.47;;;-142.83;70.89
9129;BME280;4599;50.906;6.786;2023-02-21T14:59:41;14272.34;;;-142.83;72.61
9129;BME280;4599;50.906;6.786;2023-02-21T15:03:49;14268.25;;;-142.83;73.34
9129;BME280;4599;50.906;6.786;2023-02-21T15:07:59;14260.09;;;-142.83;73.98
9129;BME280;4599;50.906;6.786;2023-02-21T15:12:08;14233.50;;;-142.83;73.44
9129;BME280;4599;50.906;6.786;2023-02-21T15:16:14;14260.09;;;-142.83;73.49
9129;BME280;4599;50.906;6.786;2023-02-21T15:20:16;14213.06;;;-142.83;74.08
9129;BME280;4599;50.906;6.786;2023-02-21T15:24:18;14251.91;;;-142.83;74.43
9129;BME280;4599;50.906;6.786;2023-02-21T15:28:22;14239.66;;;-142.83;74.75
9129;BME280;4599;50.906;6.786;2023-02-21T15:32:24;14196.72;;;-142.83;75.25
9129;BME280;4599;50.906;6.786;2023-02-21T15:36:26;14241.69;;;-142.83;75.41
9129;BME280;4599;50.906;6.786;2023-02-21T15:40:29;14217.16;;;-142.83;75.52
9129;BME280;4599;50.906;6.786;2023-02-21T15:44:36;14196.72;;;-142.83;76.50
9129;BME280;4599;50.906;6.786;2023-02-21T15:48:39;14206.94;;;-142.83;76.80
9129;BME280;4599;50.906;6.786;2023-02-21T15:52:42;14149.72;;;-142.83;78.20
9129;BME280;4599;50.906;6.786;2023-02-21T15:56:44;14149.72;;;-142.83;77.50
9129;BME280;4599;50.906;6.786;2023-02-21T16:00:48;14164.03;;;-142.83;78.98
9129;BME280;4599;50.906;6.786;2023-02-21T16:04:51;14168.13;;;-142.83;79.01
9129;BME280;4599;50.906;6.786;2023-02-21T16:08:59;14157.91;;;-142.83;78.87
9129;BME280;4599;50.906;6.786;2023-02-21T16:13:01;14133.38;;;-142.83;79.71
9129;BME280;4599;50.906;6.786;2023-02-21T16:17:17;14104.75;;;-142.83;79.11
9129;BME280;4599;50.906;6.786;2023-02-21T16:21:22;14157.91;;;-142.83;79.48
9129;BME280;4599;50.906;6.786;2023-02-21T16:25:25;14141.53;;;-142.83;79.66
9129;BME280;4599;50.906;6.786;2023-02-21T16:29:26;14141.53;;;-142.83;79.53
9129;BME280;4599;50.906;6.786;2023-02-21T16:33:29;14137.47;;;-142.83;81.48
9129;BME280;4599;50.906;6.786;2023-02-21T16:37:31;14123.16;;;-142.83;82.14
9129;BME280;4599;50.906;6.786;2023-02-21T16:41:33;14092.50;;;-142.83;82.54
9129;BME280;4599;50.906;6.786;2023-02-21T16:45:34;14098.63;;;-142.83;83.36
9129;BME280;4599;50.906;6.786;2023-02-21T16:49:37;14072.06;;;-142.83;82.25
9129;BME280;4599;50.906;6.786;2023-02-21T16:53:39;14123.16;;;-142.83;81.95
9129;BME280;4599;50.906;6.786;2023-02-21T16:57:41;14072.06;;;-142.83;83.22
9129;BME280;4599;50.906;6.786;2023-02-21T17:01:44;14119.06;;;-142.83;82.54
9129;BME280;4599;50.906;6.786;2023-02-21T17:05:49;14096.59;;;-142.83;83.36
9129;BME280;4599;50.906;6.786;2023-02-21T17:09:50;14088.41;;;-142.83;83.41
9129;BME280;4599;50.906;6.786;2023-02-21T17:13:54;14096.59;;;-142.83;83.64
9129;BME280;4599;50.906;6.786;2023-02-21T17:17:55;14110.88;;;-142.83;84.25
9129;BME280;4599;50.906;6.786;2023-02-21T17:21:58;14074.09;;;-142.83;84.49
9129;BME280;4599;50.906;6.786;2023-02-21T17:26:00;14049.56;;;-142.83;84.83
9129;BME280;4599;50.906;6.786;2023-02-21T17:30:01;14092.50;;;-142.83;85.11
9129;BME280;4599;50.906;6.786;2023-02-21T17:34:03;14067.97;;;-142.83;85.50
9129;BME280;4599;50.906;6.786;2023-02-21T17:38:06;14067.97;;;-142.83;85.76
9129;BME280;4599;50.906;6.786;2023-02-21T17:42:08;14065.94;;;-142.83;85.29
9129;BME280;4599;50.906;6.786;2023-02-21T17:46:10;14084.31;;;-142.83;85.41
9129;BME280;4599;50.906;6.786;2023-02-21T17:50:11;14072.06;;;-142.83;85.29
9129;BME280;4599;50.906;6.786;2023-02-21T17:54:15;14055.72;;;-142.83;85.13
9129;BME280;4599;50.906;6.786;2023-02-21T17:58:17;14067.97;;;-142.83;85.85
9129;BME280;4599;50.906;6.786;2023-02-21T18:02:20;14070.00;;;-142.83;85.87
9129;BME280;4599;50.906;6.786;2023-02-21T18:06:22;14088.41;;;-142.83;85.62
9129;BME280;4599;50.906;6.786;2023-02-21T18:10:25;14047.53;;;-142.83;86.23
9129;BME280;4599;50.906;6.786;2023-02-21T18:14:27;14037.31;;;-142.83;87.35
9129;BME280;4599;50.906;6.786;2023-02-21T18:18:29;14037.31;;;-142.83;86.55
9129;BME280;4599;50.906;6.786;2023-02-21T18:22:30;14055.72;;;-142.83;87.16
9129;BME280;4599;50.906;6.786;2023-02-21T18:26:33;14057.75;;;-142.83;86.20
9129;BME280;4599;50.906;6.786;2023-02-21T18:30:34;14080.22;;;-142.83;86.20
9129;BME280;4599;50.906;6.786;2023-02-21T18:34:36;14067.97;;;-142.83;86.18
9129;BME280;4599;50.906;6.786;2023-02-21T18:38:38;14063.88;;;-142.83;87.41
9129;BME280;4599;50.906;6.786;2023-02-21T18:42:41;14041.41;;;-142.83;87.79
9129;BME280;4599;50.906;6.786;2023-02-21T18:46:48;14061.84;;;-142.83;88.66
9129;BME280;4599;50.906;6.786;2023-02-21T18:50:50;14033.22;;;-142.83;88.34
9129;BME280;4599;50.906;6.786;2023-02-21T18:54:52;14072.06;;;-142.83;88.00
9129;BME280;4599;50.906;6.786;2023-02-21T18:58:55;14033.22;;;-142.83;88.46
9129;BME280;4599;50.906;6.786;2023-02-21T19:02:56;14035.28;;;-142.83;88.43
9129;BME280;4599;50.906;6.786;2023-02-21T19:06:58;14039.34;;;-142.83;88.37
9129;BME280;4599;50.906;6.786;2023-02-21T19:10:59;14059.78;;;-142.83;88.40
9129;BME280;4599;50.906;6.786;2023-02-21T19:15:02;14088.41;;;-142.83;87.58
9129;BME280;4599;50.906;6.786;2023-02-21T19:19:04;14051.63;;;-142.83;88.30
9129;BME280;4599;50.906;6.786;2023-02-21T19:23:06;14045.50;;;-142.83;88.85
9129;BME280;4599;50.906;6.786;2023-02-21T19:27:07;14023.00;;;-142.83;88.85
9129;BME280;4599;50.906;6.786;2023-02-21T19:31:11;14063.88;;;-142.83;88.53
9129;BME280;4599;50.906;6.786;2023-02-21T19:35:12;14059.78;;;-142.83;89.08
9129;BME280;4599;50.906;6.786;2023-02-21T19:39:14;14037.31;;;-142.83;89.60
9129;BME280;4599;50.906;6.786;2023-02-21T19:43:16;14067.97;;;-142.83;88.93
9129;BME280;4599;50.906;6.786;2023-02-21T19:47:18;14016.88;;;-142.83;88.57
9129;BME280;4599;50.906;6.786;2023-02-21T19:51:21;14074.09;;;-142.83;88.66
9129;BME280;4599;50.906;6.786;2023-02-21T19:55:24;14049.56;;;-142.83;88.06
9129;BME280;4599;50.906;6.786;2023-02-21T19:59:26;14086.38;;;-142.83;88.44
9129;BME280;4599;50.906;6.786;2023-02-21T20:03:29;14055.72;;;-142.83;88.65
9129;BME280;4599;50.906;6.786;2023-02-21T20:07:30;14063.88;;;-142.83;89.20
9129;BME280;4599;50.906;6.786;2023-02-21T20:11:32;14088.41;;;-142.83;88.67
9129;BME280;4599;50.906;6.786;2023-02-21T20:15:34;14045.50;;;-142.83;88.60
9129;BME280;4599;50.906;6.786;2023-02-21T20:19:37;14055.72;;;-142.83;88.76
9129;BME280;4599;50.906;6.786;2023-02-21T20:23:38;14063.88;;;-142.83;88.69
9129;BME280;4599;50.906;6.786;2023-02-21T20:27:39;14057.75;;;-142.83;89.08
9129;BME280;4599;50.906;6.786;2023-02-21T20:31:41;14072.06;;;-142.83;89.04
9129;BME280;4599;50.906;6.786;2023-02-21T20:35:44;14045.50;;;-142.83;88.92
9129;BME280;4599;50.906;6.786;2023-02-21T20:39:47;14020.97;;;-142.83;89.43
9129;BME280;4599;50.906;6.786;2023-02-21T20:43:48;14033.22;;;-142.83;89.79
9129;BME280;4599;50.906;6.786;2023-02-21T20:47:50;14023.00;;;-142.83;90.56
9129;BME280;4599;50.906;6.786;2023-02-21T20:51:53;14047.53;;;-142.83;89.81
9129;BME280;4599;50.906;6.786;2023-02-21T20:55:54;14035.28;;;-142.83;89.90
9129;BME280;4599;50.906;6.786;2023-02-21T20:59:56;14031.19;;;-142.83;90.13
9129;BME280;4599;50.906;6.786;2023-02-21T21:03:57;14041.41;;;-142.83;90.22
9129;BME280;4599;50.906;6.786;2023-02-21T21:08:00;14035.28;;;-142.83;91.05
9129;BME280;4599;50.906;6.786;2023-02-21T21:12:04;14031.19;;;-142.83;91.09
9129;BME280;4599;50.906;6.786;2023-02-21T21:16:06;14029.13;;;-142.83;90.84
9129;BME280;4599;50.906;6.786;2023-02-21T21:20:09;14031.19;;;-142.83;91.35
9129;BME280;4599;50.906;6.786;2023-02-21T21:24:12;14018.91;;;-142.83;91.12
9129;BME280;4599;50.906;6.786;2023-02-21T21:28:14;14018.91;;;-142.83;91.66
9129;BME280;4599;50.906;6.786;2023-02-21T21:32:17;14018.91;;;-142.83;91.88
9129;BME280;4599;50.906;6.786;2023-02-21T21:36:19;13988.28;;;-142.83;91.59
9129;BME280;4599;50.906;6.786;2023-02-21T21:40:22;14002.56;;;-142.83;91.27
9129;BME280;4599;50.906;6.786;2023-02-21T21:44:25;13982.13;;;-142.83;91.33
9129;BME280;4599;50.906;6.786;2023-02-21T21:48:26;13998.47;;;-142.83;92.28